sensor_id;sensor_type;location;lat;lon;timestamp;pressure;altitude;pressure_sealevel;temperature;humidity
8523;BME280;4299;42.202;24.736;2022-07-29T02:14:51;99615.91;;;20.21;100.00
8523;BME280;4299;42.202;24.736;2022-07-29T02:17:22;99612.53;;;20.00;100.00
8523;BME280;4299;42.202;24.736;2022-07-29T02:19:51;99613.38;;;19.91;100.00
8523;BME280;4299;42.202;24.736;2022-07-29T02:22:19;99609.97;;;19.89;100.00
8523;BME280;4299;42.202;24.736;2022-07-29T02:24:48;99612.41;;;19.92;100.00
8523;BME280;4299;42.202;24.736;2022-07-29T02:27:17;99615.38;;;19.89;100.00
8523;BME280;4299;42.202;24.736;2022-07-29T02:29:46;99612.53;;;19.80;100.00
8523;BME280;4299;42.202;24.736;2022-07-29T02:32:16;99602.34;;;19.74;100.00
8523;BME280;4299;42.202;24.736;2022-07-29T02:34:43;99604.63;;;19.69;100.00
8523;BME280;4299;42.202;24.736;2022-07-29T02:37:11;99602.91;;;19.68;100.00
8523;BME280;4299;42.202;24.736;2022-07-29T02:39:41;99607.72;;;19.74;100.00
8523;BME280;4299;42.202;24.736;2022-07-29T02:42:12;99606.88;;;19.83;100.00
8523;BME280;4299;42.202;24.736;2022-07-29T02:44:39;99596.69;;;19.77;100.00
8523;BME280;4299;42.202;24.736;2022-07-29T02:47:10;99601.78;;;19.71;100.00
8523;BME280;4299;42.202;24.736;2022-07-29T02:49:45;99604.31;;;19.63;100.00
8523;BME280;4299;42.202;24.736;2022-07-29T02:52:19;99607.41;;;19.58;100.00
8523;BME280;4299;42.202;24.736;2022-07-29T02:54:51;99605.75;;;19.57;100.00
8523;BME280;4299;42.202;24.736;2022-07-29T02:57:22;99606.00;;;19.54;100.00
8523;BME280;4299;42.202;24.736;2022-07-29T02:59:54;99602.34;;;19.55;100.00
8523;BME280;4299;42.202;24.736;2022-07-29T03:02:23;99604.31;;;19.53;100.00
8523;BME280;4299;42.202;24.736;2022-07-29T03:04:53;99613.66;;;19.49;100.00
8523;BME280;4299;42.202;24.736;2022-07-29T03:07:22;99607.97;;;19.42;100.00
8523;BME280;4299;42.202;24.736;2022-07-29T03:09:49;99603.75;;;19.50;100.00
8523;BME280;4299;42.202;24.736;2022-07-29T03:12:17;99614.81;;;19.56;100.00
8523;BME280;4299;42.202;24.736;2022-07-29T03:14:44;99609.13;;;19.59;100.00
8523;BME280;4299;42.202;24.736;2022-07-29T03:17:13;99614.50;;;19.59;100.00
8523;BME280;4299;42.202;24.736;2022-07-29T03:19:39;99614.81;;;19.56;100.00
8523;BME280;4299;42.202;24.736;2022-07-29T03:22:08;99621.03;;;19.57;100.00
8523;BME280;4299;42.202;24.736;2022-07-29T03:24:36;99626.38;;;19.47;100.00
8523;BME280;4299;42.202;24.736;2022-07-29T03:27:04;99629.47;;;19.42;100.00
8523;BME280;4299;42.202;24.736;2022-07-29T03:29:31;99617.56;;;19.45;100.00
8523;BME280;4299;42.202;24.736;2022-07-29T03:31:58;99629.78;;;19.49;100.00
8523;BME280;4299;42.202;24.736;2022-07-29T03:34:25;99636.56;;;19.53;100.00
8523;BME280;4299;42.202;24.736;2022-07-29T03:36:52;99637.72;;;19.60;100.00
8523;BME280;4299;42.202;24.736;2022-07-29T03:39:24;99642.00;;;19.72;100.00
8523;BME280;4299;42.202;24.736;2022-07-29T03:41:53;99637.47;;;19.82;100.00
8523;BME280;4299;42.202;24.736;2022-07-29T03:44:22;99641.28;;;19.90;100.00
8523;BME280;4299;42.202;24.736;2022-07-29T03:46:50;99634.34;;;19.97;100.00
8523;BME280;4299;42.202;24.736;2022-07-29T03:49:20;99636.06;;;20.07;100.00
8523;BME280;4299;42.202;24.736;2022-07-29T03:51:48;99623.00;;;20.22;100.00
8523;BME280;4299;42.202;24.736;2022-07-29T03:54:15;99638.56;;;20.47;100.00
8523;BME280;4299;42.202;24.736;2022-07-29T03:56:45;99639.56;;;20.93;100.00
8523;BME280;4299;42.202;24.736;2022-07-29T03:59:13;99646.50;;;21.32;100.00
8523;BME280;4299;42.202;24.736;2022-07-29T04:01:41;99645.53;;;21.96;99.66
8523;BME280;4299;42.202;24.736;2022-07-29T04:04:08;99650.41;;;22.36;98.26
8523;BME280;4299;42.202;24.736;2022-07-29T04:06:39;99649.44;;;22.89;95.68
8523;BME280;4299;42.202;24.736;2022-07-29T04:09:06;99645.84;;;23.48;93.24
8523;BME280;4299;42.202;24.736;2022-07-29T04:11:33;99651.34;;;23.97;88.80
8523;BME280;4299;42.202;24.736;2022-07-29T04:14:01;99652.44;;;24.53;85.66
8523;BME280;4299;42.202;24.736;2022-07-29T04:16:27;99653.69;;;25.05;82.34
8523;BME280;4299;42.202;24.736;2022-07-29T04:18:54;99668.75;;;25.63;78.77
8523;BME280;4299;42.202;24.736;2022-07-29T04:21:21;99669.66;;;26.32;73.83
8523;BME280;4299;42.202;24.736;2022-07-29T04:23:48;99667.84;;;26.99;68.74
8523;BME280;4299;42.202;24.736;2022-07-29T04:26:15;99660.97;;;27.47;64.25
8523;BME280;4299;42.202;24.736;2022-07-29T04:28:42;99662.75;;;27.91;60.81
8523;BME280;4299;42.202;24.736;2022-07-29T04:31:10;99670.59;;;28.15;58.97
8523;BME280;4299;42.202;24.736;2022-07-29T04:33:38;99672.16;;;28.46;57.78
8523;BME280;4299;42.202;24.736;2022-07-29T04:36:05;99664.97;;;28.66;55.28
8523;BME280;4299;42.202;24.736;2022-07-29T04:38:32;99663.06;;;28.39;55.38
8523;BME280;4299;42.202;24.736;2022-07-29T04:40:58;99666.91;;;27.87;59.41
8523;BME280;4299;42.202;24.736;2022-07-29T04:43:25;99671.16;;;27.24;63.66
8523;BME280;4299;42.202;24.736;2022-07-29T04:45:52;99677.44;;;26.58;69.72
8523;BME280;4299;42.202;24.736;2022-07-29T04:48:20;99669.75;;;26.16;73.92
8523;BME280;4299;42.202;24.736;2022-07-29T04:50:46;99673.72;;;25.82;77.13
8523;BME280;4299;42.202;24.736;2022-07-29T04:53:13;99677.63;;;25.49;78.70
8523;BME280;4299;42.202;24.736;2022-07-29T04:55:40;99674.28;;;25.31;82.04
8523;BME280;4299;42.202;24.736;2022-07-29T04:58:07;99675.69;;;25.18;83.27
8523;BME280;4299;42.202;24.736;2022-07-29T05:00:33;99669.28;;;25.11;83.83
8523;BME280;4299;42.202;24.736;2022-07-29T05:03:00;99674.72;;;25.03;85.35
8523;BME280;4299;42.202;24.736;2022-07-29T05:05:28;99679.84;;;24.98;85.77
8523;BME280;4299;42.202;24.736;2022-07-29T05:07:55;99677.44;;;24.87;86.89
8523;BME280;4299;42.202;24.736;2022-07-29T05:10:22;99675.41;;;24.89;86.89
8523;BME280;4299;42.202;24.736;2022-07-29T05:12:49;99681.69;;;24.90;87.10
8523;BME280;4299;42.202;24.736;2022-07-29T05:15:15;99675.75;;;25.02;87.20
8523;BME280;4299;42.202;24.736;2022-07-29T05:17:43;99679.16;;;24.96;88.13
8523;BME280;4299;42.202;24.736;2022-07-29T05:20:10;99684.56;;;24.88;86.30
8523;BME280;4299;42.202;24.736;2022-07-29T05:22:38;99686.91;;;25.07;85.97
8523;BME280;4299;42.202;24.736;2022-07-29T05:25:05;99684.34;;;25.14;86.67
8523;BME280;4299;42.202;24.736;2022-07-29T05:27:32;99683.66;;;25.20;86.47
8523;BME280;4299;42.202;24.736;2022-07-29T05:29:59;99684.47;;;25.29;85.18
8523;BME280;4299;42.202;24.736;2022-07-29T05:32:26;99679.22;;;25.27;83.91
8523;BME280;4299;42.202;24.736;2022-07-29T05:34:52;99688.53;;;25.33;84.68
8523;BME280;4299;42.202;24.736;2022-07-29T05:37:19;99693.41;;;25.45;84.20
8523;BME280;4299;42.202;24.736;2022-07-29T05:39:48;99676.84;;;25.71;83.35
8523;BME280;4299;42.202;24.736;2022-07-29T05:42:14;99689.28;;;25.88;81.21
8523;BME280;4299;42.202;24.736;2022-07-29T05:44:41;99693.16;;;25.94;80.61
8523;BME280;4299;42.202;24.736;2022-07-29T05:47:08;99694.69;;;25.96;80.41
8523;BME280;4299;42.202;24.736;2022-07-29T05:49:35;99694.28;;;26.08;78.60
8523;BME280;4299;42.202;24.736;2022-07-29T05:52:02;99695.91;;;26.17;76.90
8523;BME280;4299;42.202;24.736;2022-07-29T05:54:28;99705.16;;;26.08;78.03
8523;BME280;4299;42.202;24.736;2022-07-29T05:56:58;99705.75;;;26.18;77.68
8523;BME280;4299;42.202;24.736;2022-07-29T05:59:24;99713.03;;;26.25;77.95
8523;BME280;4299;42.202;24.736;2022-07-29T06:01:51;99710.75;;;26.37;77.85
8523;BME280;4299;42.202;24.736;2022-07-29T06:04:18;99707.34;;;26.58;75.89
8523;BME280;4299;42.202;24.736;2022-07-29T06:06:44;99708.41;;;26.71;74.80
8523;BME280;4299;42.202;24.736;2022-07-29T06:09:11;99710.66;;;26.83;71.75
8523;BME280;4299;42.202;24.736;2022-07-29T06:11:38;99705.22;;;26.83;71.97
8523;BME280;4299;42.202;24.736;2022-07-29T06:14:06;99711.41;;;26.77;71.93
8523;BME280;4299;42.202;24.736;2022-07-29T06:16:32;99710.66;;;26.83;70.19
8523;BME280;4299;42.202;24.736;2022-07-29T06:18:59;99711.66;;;26.90;71.19
8523;BME280;4299;42.202;24.736;2022-07-29T06:21:26;99707.16;;;26.97;71.04
8523;BME280;4299;42.202;24.736;2022-07-29T06:23:52;99715.53;;;26.95;73.12
8523;BME280;4299;42.202;24.736;2022-07-29T06:26:20;99711.88;;;27.03;71.18
8523;BME280;4299;42.202;24.736;2022-07-29T06:28:47;99710.91;;;26.96;71.91
8523;BME280;4299;42.202;24.736;2022-07-29T06:31:15;99710.44;;;26.92;71.57
8523;BME280;4299;42.202;24.736;2022-07-29T06:33:42;99699.88;;;26.89;71.75
8523;BME280;4299;42.202;24.736;2022-07-29T06:36:09;99702.28;;;27.07;70.74
8523;BME280;4299;42.202;24.736;2022-07-29T06:38:35;99714.03;;;27.22;70.66
8523;BME280;4299;42.202;24.736;2022-07-29T06:41:03;99705.69;;;27.24;70.59
8523;BME280;4299;42.202;24.736;2022-07-29T06:43:33;99710.91;;;27.25;69.86
8523;BME280;4299;42.202;24.736;2022-07-29T06:46:02;99711.50;;;27.35;70.36
8523;BME280;4299;42.202;24.736;2022-07-29T06:48:34;99705.50;;;27.55;68.26
8523;BME280;4299;42.202;24.736;2022-07-29T06:51:02;99694.50;;;27.63;67.52
8523;BME280;4299;42.202;24.736;2022-07-29T06:53:29;99693.63;;;27.77;66.37
8523;BME280;4299;42.202;24.736;2022-07-29T06:55:57;99691.31;;;27.95;66.29
8523;BME280;4299;42.202;24.736;2022-07-29T06:58:24;99698.06;;;27.99;66.19
8523;BME280;4299;42.202;24.736;2022-07-29T07:00:51;99693.53;;;28.06;65.52
8523;BME280;4299;42.202;24.736;2022-07-29T07:03:18;99693.25;;;28.16;63.80
8523;BME280;4299;42.202;24.736;2022-07-29T07:05:47;99692.94;;;28.25;62.05
8523;BME280;4299;42.202;24.736;2022-07-29T07:08:13;99694.22;;;28.30;62.70
8523;BME280;4299;42.202;24.736;2022-07-29T07:10:41;99690.22;;;28.47;62.48
8523;BME280;4299;42.202;24.736;2022-07-29T07:13:08;99694.97;;;28.66;59.73
8523;BME280;4299;42.202;24.736;2022-07-29T07:15:35;99689.66;;;28.79;56.89
8523;BME280;4299;42.202;24.736;2022-07-29T07:18:03;99686.78;;;28.87;55.60
8523;BME280;4299;42.202;24.736;2022-07-29T07:20:31;99690.25;;;29.02;54.48
8523;BME280;4299;42.202;24.736;2022-07-29T07:22:59;99692.09;;;29.30;54.15
8523;BME280;4299;42.202;24.736;2022-07-29T07:25:26;99693.91;;;29.44;52.44
8523;BME280;4299;42.202;24.736;2022-07-29T07:27:52;99690.59;;;29.62;52.32
8523;BME280;4299;42.202;24.736;2022-07-29T07:30:19;99696.53;;;29.65;50.36
8523;BME280;4299;42.202;24.736;2022-07-29T07:32:46;99694.34;;;29.54;50.89
8523;BME280;4299;42.202;24.736;2022-07-29T07:35:13;99692.25;;;29.50;51.99
8523;BME280;4299;42.202;24.736;2022-07-29T07:37:40;99691.44;;;29.62;52.95
8523;BME280;4299;42.202;24.736;2022-07-29T07:40:10;99696.38;;;29.87;50.13
8523;BME280;4299;42.202;24.736;2022-07-29T07:42:38;99695.75;;;29.85;47.85
8523;BME280;4299;42.202;24.736;2022-07-29T07:45:05;99691.09;;;29.78;49.02
8523;BME280;4299;42.202;24.736;2022-07-29T07:47:34;99692.28;;;29.56;48.71
8523;BME280;4299;42.202;24.736;2022-07-29T07:50:01;99684.72;;;29.58;49.17
8523;BME280;4299;42.202;24.736;2022-07-29T07:52:28;99699.53;;;29.84;43.32
8523;BME280;4299;42.202;24.736;2022-07-29T07:54:55;99698.69;;;29.90;41.81
8523;BME280;4299;42.202;24.736;2022-07-29T07:57:23;99694.34;;;29.95;44.42
8523;BME280;4299;42.202;24.736;2022-07-29T07:59:50;99692.47;;;30.02;44.26
8523;BME280;4299;42.202;24.736;2022-07-29T08:02:16;99694.19;;;30.23;41.95
8523;BME280;4299;42.202;24.736;2022-07-29T08:04:43;99689.16;;;30.33;42.06
8523;BME280;4299;42.202;24.736;2022-07-29T08:07:10;99693.16;;;30.37;42.56
8523;BME280;4299;42.202;24.736;2022-07-29T08:09:36;99682.63;;;30.41;43.42
8523;BME280;4299;42.202;24.736;2022-07-29T08:12:04;99692.16;;;30.58;42.57
8523;BME280;4299;42.202;24.736;2022-07-29T08:14:32;99696.38;;;30.80;41.68
8523;BME280;4299;42.202;24.736;2022-07-29T08:16:59;99690.03;;;30.93;40.74
8523;BME280;4299;42.202;24.736;2022-07-29T08:19:26;99687.06;;;31.01;40.69
8523;BME280;4299;42.202;24.736;2022-07-29T08:21:53;99687.91;;;31.21;41.65
8523;BME280;4299;42.202;24.736;2022-07-29T08:24:20;99691.09;;;31.12;40.12
8523;BME280;4299;42.202;24.736;2022-07-29T08:27:04;99688.75;;;31.02;40.01
8523;BME280;4299;42.202;24.736;2022-07-29T08:29:32;99681.59;;;31.01;40.46
8523;BME280;4299;42.202;24.736;2022-07-29T08:32:08;99690.03;;;31.19;40.29
8523;BME280;4299;42.202;24.736;2022-07-29T08:34:35;99685.16;;;31.21;38.12
8523;BME280;4299;42.202;24.736;2022-07-29T08:37:01;99680.72;;;31.33;38.16
8523;BME280;4299;42.202;24.736;2022-07-29T08:39:28;99665.47;;;31.51;38.74
8523;BME280;4299;42.202;24.736;2022-07-29T08:41:55;99683.78;;;31.63;37.66
8523;BME280;4299;42.202;24.736;2022-07-29T08:44:22;99668.41;;;31.56;36.77
8523;BME280;4299;42.202;24.736;2022-07-29T08:46:50;99668.41;;;31.56;36.24
8523;BME280;4299;42.202;24.736;2022-07-29T08:49:17;99666.75;;;31.42;36.82
8523;BME280;4299;42.202;24.736;2022-07-29T08:51:44;99666.38;;;31.38;35.36
8523;BME280;4299;42.202;24.736;2022-07-29T08:54:11;99662.53;;;31.46;36.02
8523;BME280;4299;42.202;24.736;2022-07-29T08:56:42;99655.78;;;31.55;36.01
8523;BME280;4299;42.202;24.736;2022-07-29T08:59:10;99658.94;;;31.52;35.45
8523;BME280;4299;42.202;24.736;2022-07-29T09:01:38;99657.88;;;31.53;35.62
8523;BME280;4299;42.202;24.736;2022-07-29T09:04:10;99646.00;;;31.72;35.20
8523;BME280;4299;42.202;24.736;2022-07-29T09:06:42;99654.31;;;31.97;34.92
8523;BME280;4299;42.202;24.736;2022-07-29T09:09:09;99649.56;;;32.10;33.99
8523;BME280;4299;42.202;24.736;2022-07-29T09:11:37;99643.13;;;32.30;33.66
8523;BME280;4299;42.202;24.736;2022-07-29T09:14:04;99648.97;;;32.40;33.30
8523;BME280;4299;42.202;24.736;2022-07-29T09:16:48;99646.84;;;32.42;32.35
8523;BME280;4299;42.202;24.736;2022-07-29T09:19:28;99646.56;;;32.50;32.14
8523;BME280;4299;42.202;24.736;2022-07-29T09:21:57;99639.56;;;32.54;32.08
8523;BME280;4299;42.202;24.736;2022-07-29T09:24:24;99634.47;;;32.58;30.23
8523;BME280;4299;42.202;24.736;2022-07-29T09:26:51;99636.28;;;32.70;29.94
8523;BME280;4299;42.202;24.736;2022-07-29T09:29:19;99633.94;;;32.67;30.11
8523;BME280;4299;42.202;24.736;2022-07-29T09:31:48;99632.50;;;32.65;30.02
8523;BME280;4299;42.202;24.736;2022-07-29T09:34:21;99642.41;;;32.66;30.08
8523;BME280;4299;42.202;24.736;2022-07-29T09:36:51;99631.47;;;32.59;28.91
8523;BME280;4299;42.202;24.736;2022-07-29T09:39:27;99632.19;;;32.79;28.29
8523;BME280;4299;42.202;24.736;2022-07-29T09:41:56;99625.56;;;33.05;28.22
8523;BME280;4299;42.202;24.736;2022-07-29T09:44:24;99624.69;;;33.30;28.94
8523;BME280;4299;42.202;24.736;2022-07-29T09:46:59;99621.69;;;33.49;28.34
8523;BME280;4299;42.202;24.736;2022-07-29T09:49:31;99614.50;;;33.48;28.77
8523;BME280;4299;42.202;24.736;2022-07-29T09:52:07;99621.91;;;33.66;28.81
8523;BME280;4299;42.202;24.736;2022-07-29T09:54:35;99628.44;;;33.83;29.08
8523;BME280;4299;42.202;24.736;2022-07-29T09:57:08;99619.50;;;33.70;28.25
8523;BME280;4299;42.202;24.736;2022-07-29T09:59:37;99616.50;;;33.59;28.99
8523;BME280;4299;42.202;24.736;2022-07-29T10:02:11;99613.09;;;33.76;28.87
8523;BME280;4299;42.202;24.736;2022-07-29T10:04:39;99619.50;;;33.70;27.85
8523;BME280;4299;42.202;24.736;2022-07-29T10:07:07;99615.75;;;33.52;28.58
8523;BME280;4299;42.202;24.736;2022-07-29T10:09:35;99614.38;;;33.43;28.77
8523;BME280;4299;42.202;24.736;2022-07-29T10:12:07;99607.81;;;33.44;28.16
8523;BME280;4299;42.202;24.736;2022-07-29T10:14:35;99612.38;;;33.50;27.68
8523;BME280;4299;42.202;24.736;2022-07-29T10:17:04;99605.94;;;33.56;26.97
8523;BME280;4299;42.202;24.736;2022-07-29T10:19:31;99617.38;;;33.53;25.25
8523;BME280;4299;42.202;24.736;2022-07-29T10:22:00;99607.63;;;33.57;26.18
8523;BME280;4299;42.202;24.736;2022-07-29T10:24:30;99607.00;;;33.55;26.36
8523;BME280;4299;42.202;24.736;2022-07-29T10:26:59;99601.94;;;33.71;26.92
8523;BME280;4299;42.202;24.736;2022-07-29T10:29:28;99606.06;;;33.80;27.49
8523;BME280;4299;42.202;24.736;2022-07-29T10:32:09;99600.09;;;33.83;26.73
8523;BME280;4299;42.202;24.736;2022-07-29T10:34:51;99598.66;;;33.80;26.36
8523;BME280;4299;42.202;24.736;2022-07-29T10:37:28;99589.56;;;33.80;26.91
8523;BME280;4299;42.202;24.736;2022-07-29T10:40:05;99592.00;;;33.88;26.74
8523;BME280;4299;42.202;24.736;2022-07-29T10:42:50;99589.84;;;33.90;27.56
8523;BME280;4299;42.202;24.736;2022-07-29T10:45:19;99582.91;;;33.99;26.68
8523;BME280;4299;42.202;24.736;2022-07-29T10:47:46;99574.91;;;33.97;26.96
8523;BME280;4299;42.202;24.736;2022-07-29T10:50:13;99583.19;;;34.09;26.79
8523;BME280;4299;42.202;24.736;2022-07-29T10:52:53;99575.28;;;34.13;27.14
8523;BME280;4299;42.202;24.736;2022-07-29T10:55:33;99560.22;;;34.15;27.06
8523;BME280;4299;42.202;24.736;2022-07-29T10:58:12;99561.91;;;34.16;26.68
8523;BME280;4299;42.202;24.736;2022-07-29T11:00:39;99554.13;;;34.13;26.82
8523;BME280;4299;42.202;24.736;2022-07-29T11:03:05;99560.28;;;34.38;26.97
8523;BME280;4299;42.202;24.736;2022-07-29T11:05:52;99552.63;;;34.64;26.22
8523;BME280;4299;42.202;24.736;2022-07-29T11:08:21;99550.47;;;34.66;27.43
8523;BME280;4299;42.202;24.736;2022-07-29T11:10:52;99560.88;;;34.64;26.83
8523;BME280;4299;42.202;24.736;2022-07-29T11:13:47;99553.00;;;34.79;27.56
8523;BME280;4299;42.202;24.736;2022-07-29T11:16:16;99547.97;;;34.76;27.10
8523;BME280;4299;42.202;24.736;2022-07-29T11:19:23;99542.22;;;34.89;26.00
8523;BME280;4299;42.202;24.736;2022-07-29T11:21:51;99543.66;;;34.68;26.90
8523;BME280;4299;42.202;24.736;2022-07-29T11:24:20;99544.50;;;34.69;27.00
8523;BME280;4299;42.202;24.736;2022-07-29T11:29:52;99530.59;;;34.87;27.53
8523;BME280;4299;42.202;24.736;2022-07-29T11:32:20;99531.78;;;34.91;27.06
8523;BME280;4299;42.202;24.736;2022-07-29T11:34:48;99533.94;;;34.89;27.55
8523;BME280;4299;42.202;24.736;2022-07-29T11:37:22;99517.88;;;34.86;26.54
8523;BME280;4299;42.202;24.736;2022-07-29T11:42:48;99508.78;;;34.97;27.94
8523;BME280;4299;42.202;24.736;2022-07-29T11:45:21;99504.88;;;35.22;27.95
8523;BME280;4299;42.202;24.736;2022-07-29T11:47:53;99499.47;;;35.27;27.88
8523;BME280;4299;42.202;24.736;2022-07-29T11:50:36;99489.41;;;35.49;27.67
8523;BME280;4299;42.202;24.736;2022-07-29T11:53:10;99496.34;;;35.51;27.84
8523;BME280;4299;42.202;24.736;2022-07-29T11:55:38;99493.75;;;35.45;27.56
8523;BME280;4299;42.202;24.736;2022-07-29T11:58:05;99492.66;;;35.46;26.66
8523;BME280;4299;42.202;24.736;2022-07-29T12:00:36;99483.41;;;35.52;27.29
8523;BME280;4299;42.202;24.736;2022-07-29T12:03:06;99483.41;;;35.52;27.24
8523;BME280;4299;42.202;24.736;2022-07-29T12:05:39;99486.81;;;35.59;27.30
8523;BME280;4299;42.202;24.736;2022-07-29T12:08:12;99489.59;;;35.59;26.84
8523;BME280;4299;42.202;24.736;2022-07-29T12:10:40;99482.97;;;35.72;27.12
8523;BME280;4299;42.202;24.736;2022-07-29T12:13:08;99482.41;;;35.86;26.47
8523;BME280;4299;42.202;24.736;2022-07-29T12:15:37;99477.44;;;36.05;26.52
8523;BME280;4299;42.202;24.736;2022-07-29T12:18:12;99479.44;;;36.10;26.29
8523;BME280;4299;42.202;24.736;2022-07-29T12:20:41;99482.13;;;36.05;26.47
8523;BME280;4299;42.202;24.736;2022-07-29T12:23:09;99474.09;;;36.03;26.82
8523;BME280;4299;42.202;24.736;2022-07-29T12:25:38;99475.75;;;36.04;26.75
8523;BME280;4299;42.202;24.736;2022-07-29T12:28:07;99481.47;;;35.98;26.48
8523;BME280;4299;42.202;24.736;2022-07-29T12:30:41;99480.47;;;35.87;26.61
8523;BME280;4299;42.202;24.736;2022-07-29T12:33:13;99481.28;;;35.87;27.26
8523;BME280;4299;42.202;24.736;2022-07-29T12:35:41;99470.69;;;35.79;26.73
8523;BME280;4299;42.202;24.736;2022-07-29T12:38:09;99458.38;;;35.70;27.02
8523;BME280;4299;42.202;24.736;2022-07-29T12:40:36;99458.81;;;35.79;26.72
8523;BME280;4299;42.202;24.736;2022-07-29T12:43:12;99452.00;;;36.03;27.09
8523;BME280;4299;42.202;24.736;2022-07-29T12:45:42;99455.59;;;36.04;26.72
8523;BME280;4299;42.202;24.736;2022-07-29T12:48:10;99447.69;;;35.90;26.65
8523;BME280;4299;42.202;24.736;2022-07-29T12:50:55;99444.31;;;35.88;26.05
8523;BME280;4299;42.202;24.736;2022-07-29T12:53:22;99446.34;;;35.76;26.58
8523;BME280;4299;42.202;24.736;2022-07-29T12:55:51;99435.97;;;35.83;27.44
8523;BME280;4299;42.202;24.736;2022-07-29T12:58:32;99440.78;;;36.10;27.37
8523;BME280;4299;42.202;24.736;2022-07-29T13:01:09;99431.03;;;36.19;26.49
8523;BME280;4299;42.202;24.736;2022-07-29T13:03:48;99437.84;;;36.33;26.31
8523;BME280;4299;42.202;24.736;2022-07-29T13:06:37;99439.94;;;36.43;26.23
8523;BME280;4299;42.202;24.736;2022-07-29T13:09:07;99432.13;;;36.18;25.93
8523;BME280;4299;42.202;24.736;2022-07-29T13:11:36;99423.94;;;36.23;26.64
8523;BME280;4299;42.202;24.736;2022-07-29T13:14:05;99421.38;;;36.38;26.12
8523;BME280;4299;42.202;24.736;2022-07-29T13:16:33;99413.66;;;36.62;26.89
8523;BME280;4299;42.202;24.736;2022-07-29T13:19:08;99419.22;;;36.84;26.55
8523;BME280;4299;42.202;24.736;2022-07-29T13:21:36;99405.34;;;36.79;26.60
8523;BME280;4299;42.202;24.736;2022-07-29T13:24:03;99420.47;;;36.98;26.36
8523;BME280;4299;42.202;24.736;2022-07-29T13:26:31;99406.84;;;37.13;26.00
8523;BME280;4299;42.202;24.736;2022-07-29T13:28:58;99416.47;;;37.32;25.41
8523;BME280;4299;42.202;24.736;2022-07-29T13:31:24;99410.16;;;37.42;25.06
8523;BME280;4299;42.202;24.736;2022-07-29T13:33:53;99404.41;;;37.49;24.69
8523;BME280;4299;42.202;24.736;2022-07-29T13:36:19;99399.94;;;37.42;24.63
8523;BME280;4299;42.202;24.736;2022-07-29T13:38:46;99389.06;;;37.04;24.90
8523;BME280;4299;42.202;24.736;2022-07-29T13:41:13;99390.16;;;37.03;25.74
8523;BME280;4299;42.202;24.736;2022-07-29T13:43:39;99381.59;;;37.31;25.46
8523;BME280;4299;42.202;24.736;2022-07-29T13:46:06;99380.19;;;38.45;23.87
8523;BME280;4299;42.202;24.736;2022-07-29T13:48:33;99379.41;;;39.73;22.44
8523;BME280;4299;42.202;24.736;2022-07-29T13:51:01;99387.97;;;40.96;21.52
8523;BME280;4299;42.202;24.736;2022-07-29T13:53:28;99384.72;;;41.96;20.14
8523;BME280;4299;42.202;24.736;2022-07-29T13:55:54;99392.50;;;42.70;19.19
8523;BME280;4299;42.202;24.736;2022-07-29T13:58:21;99377.97;;;43.48;19.19
8523;BME280;4299;42.202;24.736;2022-07-29T14:00:47;99377.78;;;44.23;18.31
8523;BME280;4299;42.202;24.736;2022-07-29T14:03:14;99379.63;;;44.14;17.85
8523;BME280;4299;42.202;24.736;2022-07-29T14:05:40;99383.78;;;44.31;17.87
8523;BME280;4299;42.202;24.736;2022-07-29T14:08:08;99379.22;;;44.89;17.40
8523;BME280;4299;42.202;24.736;2022-07-29T14:10:34;99387.34;;;44.77;17.63
8523;BME280;4299;42.202;24.736;2022-07-29T14:13:01;99368.25;;;44.66;17.72
8523;BME280;4299;42.202;24.736;2022-07-29T14:15:27;99378.69;;;45.37;17.21
8523;BME280;4299;42.202;24.736;2022-07-29T14:17:54;99380.75;;;46.69;16.60
8523;BME280;4299;42.202;24.736;2022-07-29T14:20:20;99381.38;;;48.04;15.65
8523;BME280;4299;42.202;24.736;2022-07-29T14:22:46;99389.16;;;48.74;14.79
8523;BME280;4299;42.202;24.736;2022-07-29T14:25:14;99384.97;;;49.30;14.73
8523;BME280;4299;42.202;24.736;2022-07-29T14:27:41;99386.72;;;48.34;14.84
8523;BME280;4299;42.202;24.736;2022-07-29T14:30:08;99383.34;;;48.12;14.61
8523;BME280;4299;42.202;24.736;2022-07-29T14:32:35;99382.38;;;48.08;14.75
8523;BME280;4299;42.202;24.736;2022-07-29T14:35:03;99385.09;;;48.25;14.67
8523;BME280;4299;42.202;24.736;2022-07-29T14:37:30;99377.56;;;48.46;14.31
8523;BME280;4299;42.202;24.736;2022-07-29T14:39:57;99372.19;;;47.77;15.23
8523;BME280;4299;42.202;24.736;2022-07-29T14:42:28;99379.84;;;47.34;15.07
8523;BME280;4299;42.202;24.736;2022-07-29T14:44:55;99367.34;;;47.86;14.42
8523;BME280;4299;42.202;24.736;2022-07-29T14:47:21;99366.28;;;48.55;14.16
8523;BME280;4299;42.202;24.736;2022-07-29T14:49:48;99370.25;;;49.45;13.69
8523;BME280;4299;42.202;24.736;2022-07-29T14:52:14;99376.69;;;50.12;13.81
8523;BME280;4299;42.202;24.736;2022-07-29T14:54:41;99379.41;;;50.45;13.34
8523;BME280;4299;42.202;24.736;2022-07-29T14:57:08;99375.19;;;50.39;13.71
8523;BME280;4299;42.202;24.736;2022-07-29T14:59:35;99363.38;;;50.00;13.96
8523;BME280;4299;42.202;24.736;2022-07-29T15:02:02;99372.19;;;49.99;13.79
8523;BME280;4299;42.202;24.736;2022-07-29T15:04:28;99371.44;;;50.22;13.29
8523;BME280;4299;42.202;24.736;2022-07-29T15:06:55;99369.09;;;49.79;13.40
8523;BME280;4299;42.202;24.736;2022-07-29T15:09:21;99357.50;;;49.93;13.73
8523;BME280;4299;42.202;24.736;2022-07-29T15:11:48;99356.31;;;49.82;13.72
8523;BME280;4299;42.202;24.736;2022-07-29T15:14:14;99358.81;;;49.09;14.51
8523;BME280;4299;42.202;24.736;2022-07-29T15:16:42;99355.22;;;48.12;14.60
8523;BME280;4299;42.202;24.736;2022-07-29T15:19:09;99354.53;;;47.42;14.90
8523;BME280;4299;42.202;24.736;2022-07-29T15:21:36;99347.13;;;47.38;15.09
8523;BME280;4299;42.202;24.736;2022-07-29T15:24:03;99350.34;;;47.91;14.98
8523;BME280;4299;42.202;24.736;2022-07-29T15:26:32;99342.13;;;48.74;14.58
8523;BME280;4299;42.202;24.736;2022-07-29T15:28:59;99349.66;;;49.54;14.18
8523;BME280;4299;42.202;24.736;2022-07-29T15:31:25;99358.50;;;50.21;13.77
8523;BME280;4299;42.202;24.736;2022-07-29T15:33:54;99359.19;;;50.67;13.39
8523;BME280;4299;42.202;24.736;2022-07-29T15:36:21;99356.03;;;50.44;13.32
8523;BME280;4299;42.202;24.736;2022-07-29T15:38:47;99351.72;;;49.03;14.61